EW8974 Weather Reports


Display with metric or nautical units.
time (UTC)temp
F
wind
direction
speed
MPH
gust
MPH
rain 1hr
in
rain 24hr
in
rain mn
in
humidity
%
barometer
mb
20260902155506 89 37 1.0 4.0 0.00 0.00 0.00 60 1009.5
20260902155004 89 330 0.0 2.0 0.00 0.00 0.00 62 1009.6
20260902154502 88 6 0.0 3.0 0.00 0.00 0.00 63 1009.6
20260902154003 88 86 0.0 3.0 0.00 0.00 0.00 64 1009.6
20260902153601 87 34 0.0 2.0 0.00 0.00 0.00 65 1009.5
20260902153101 86 349 0.0 1.0 0.00 0.00 0.00 65 1009.5
20260902152557 85 27 0.0 4.0 0.00 0.00 0.00 68 1009.6
20260902152100 85 54 0.0 4.0 0.00 0.00 0.00 67 1009.4
20260902151555 84 195 0.0 2.0 0.00 0.00 0.00 72 1009.6
20260902151052 83 229 0.0 1.0 0.00 0.00 0.00 73 1009.5
20260902150552 83 229 0.0 2.0 0.00 0.00 0.00 74 1009.4
20260902150051 82 283 1.0 2.0 0.00 0.00 0.00 73 1009.5
20260902145550 82 229 0.0 3.0 0.00 0.00 0.00 73 1009.6
20260902145049 82 65 0.0 3.0 0.00 0.00 0.00 74 1009.6
20260902144551 81 181 0.0 1.0 0.00 0.00 0.00 76 1009.6
20260902144049 81 283 0.0 1.0 0.00 0.00 0.00 77 1009.7
20260902143548 81 283 0.0 1.0 0.00 0.00 0.00 77 1009.7
20260902143048 80 31 0.0 0.0 0.00 0.00 0.00 77 1009.5
20260902142547 80 31 0.0 1.0 0.00 0.00 0.00 78 1009.6
20260902142047 80 277 0.0 1.0 0.00 0.00 0.00 79 1009.4
20260902141551 80 275 0.0 2.0 0.00 0.00 0.00 79 1009.4
20260902141046 79 33 0.0 2.0 0.00 0.00 0.00 80 1009.4
20260902140546 79 46 0.0 2.0 0.00 0.00 0.00 80 1009.5
20260902140049 78 295 0.0 1.0 0.00 0.00 0.00 80 1009.5
20260902135545 78 295 0.0 1.0 0.00 0.00 0.00 81 1009.4
20260902135045 77 295 0.0 3.0 0.00 0.00 0.00 82 1009.4
20260902134551 77 63 0.0 3.0 0.00 0.00 0.00 83 1009.5
20260902134044 76 248 0.0 1.0 0.00 0.00 0.00 84 1009.5
20260902133544 76 248 0.0 1.0 0.00 0.00 0.00 84 1009.4
20260902133045 75 248 0.0 1.0 0.00 0.00 0.00 85 1009.4
20260902132546 75 248 0.0 1.0 0.00 0.00 0.00 86 1009.4
20260902132043 74 248 0.0 1.0 0.00 0.00 0.00 87 1009.4
20260902131543 74 248 0.0 1.0 0.00 0.00 0.00 87 1009.5
20260902131046 73 248 0.0 0.0 0.00 0.00 0.00 89 1009.5
20260902130543 73 248 0.0 0.0 0.00 0.00 0.00 89 1009.5
20260902130042 72 248 0.0 0.0 0.00 0.00 0.00 89 1009.3
20260902125542 72 248 0.0 0.0 0.00 0.00 0.00 89 1009.2
20260902125042 72 248 0.0 0.0 0.00 0.00 0.00 89 1009.2
20260902124542 72 248 0.0 0.0 0.00 0.00 0.00 89 1009.2
20260902124041 72 248 0.0 0.0 0.00 0.00 0.00 89 1009.2
20260902123540 72 248 0.0 0.0 0.00 0.00 0.00 89 1009.0
20260902123040 71 248 0.0 0.0 0.00 0.00 0.00 89 1008.9
20260902122542 71 248 0.0 0.0 0.00 0.00 0.00 88 1008.9
20260902122039 71 248 0.0 0.0 0.00 0.00 0.00 89 1008.8
20260902121540 71 248 0.0 0.0 0.00 0.00 0.00 88 1008.8
20260902121038 71 248 0.0 0.0 0.00 0.00 0.00 89 1008.8
20260902120540 71 248 0.0 0.0 0.00 0.00 0.00 88 1008.8
20260902120039 71 248 0.0 0.0 0.00 0.00 0.00 88 1008.7
20260902115537 71 248 0.0 0.0 0.00 0.00 0.00 88 1008.7
20260902115038 71 248 0.0 0.0 0.00 0.00 0.00 88 1008.8
20260902114538 71 248 0.0 0.0 0.00 0.00 0.00 88 1008.7
20260902114038 72 248 0.0 0.0 0.00 0.00 0.00 88 1008.7
20260902113537 71 248 0.0 0.0 0.00 0.00 0.00 88 1008.8
20260902113037 71 248 0.0 0.0 0.00 0.00 0.00 88 1008.7
20260902112536 72 248 0.0 0.0 0.00 0.00 0.00 88 1008.9
20260902112036 72 248 0.0 0.0 0.00 0.00 0.00 88 1008.9
20260902111536 72 248 0.0 0.0 0.00 0.00 0.00 88 1008.8
20260902111036 71 248 0.0 0.0 0.00 0.00 0.00 88 1008.7
20260902110539 72 248 0.0 0.0 0.00 0.00 0.00 87 1008.7
20260902110037 72 248 0.0 0.0 0.00 0.00 0.00 87 1008.7
20260902105535 72 248 0.0 0.0 0.00 0.00 0.00 87 1008.7
20260902105034 72 248 0.0 0.0 0.00 0.00 0.00 87 1008.6
20260902104535 72 248 0.0 0.0 0.00 0.00 0.00 87 1008.6
20260902104035 72 248 0.0 0.0 0.00 0.00 0.00 86 1008.7
20260902103533 72 248 0.0 0.0 0.00 0.00 0.00 86 1008.6
20260902103032 72 248 0.0 0.0 0.00 0.00 0.00 86 1008.6
20260902102533 72 248 0.0 0.0 0.00 0.00 0.00 86 1008.6
20260902102031 72 248 0.0 0.0 0.00 0.00 0.00 86 1008.7
20260902101530 73 248 0.0 0.0 0.00 0.00 0.00 85 1008.8
20260902101033 73 248 0.0 0.0 0.00 0.00 0.00 85 1008.7
20260902100529 73 248 0.0 0.0 0.00 0.00 0.00 84 1008.7
20260902100028 73 248 0.0 0.0 0.00 0.00 0.00 84 1008.8
20260902095527 73 248 0.0 0.0 0.00 0.00 0.00 84 1008.8
20260902095027 74 248 0.0 0.0 0.00 0.00 0.00 83 1008.7
20260902094528 74 248 0.0 0.0 0.00 0.00 0.00 83 1008.7
20260902094026 74 248 0.0 0.0 0.00 0.00 0.00 83 1008.7
20260902093525 74 248 0.0 0.0 0.00 0.00 0.00 82 1008.6
20260902093025 74 248 0.0 0.0 0.00 0.00 0.00 82 1008.6
20260902092525 75 248 0.0 0.0 0.00 0.00 0.00 82 1008.5
20260902092023 75 248 0.0 0.0 0.00 0.00 0.00 81 1008.6
20260902091522 75 248 0.0 0.0 0.00 0.00 0.00 81 1008.6
20260902091021 75 248 0.0 0.0 0.00 0.00 0.00 80 1008.5
20260902090520 76 248 0.0 0.0 0.00 0.00 0.00 80 1008.5
20260902090019 76 248 0.0 0.0 0.00 0.00 0.00 79 1008.4
20260902085520 76 248 0.0 0.0 0.00 0.00 0.00 79 1008.3
20260902085016 76 248 0.0 0.0 0.00 0.00 0.00 78 1008.3
20260902084519 77 248 0.0 1.0 0.00 0.00 0.00 78 1008.4
20260902084017 77 248 0.0 1.0 0.00 0.00 0.00 79 1008.4
20260902083521 76 248 0.0 1.0 0.00 0.00 0.00 79 1008.4
20260902083016 77 248 0.0 1.0 0.00 0.00 0.00 79 1008.4
20260902082515 77 248 0.0 1.0 0.00 0.00 0.00 78 1008.5
20260902082016 77 248 0.0 1.0 0.00 0.00 0.00 78 1008.5
20260902081513 77 248 0.0 1.0 0.00 0.00 0.00 78 1008.4
20260902081013 77 248 0.0 1.0 0.00 0.00 0.00 77 1008.5
20260902080512 78 247 0.0 2.0 0.00 0.00 0.00 78 1008.6
20260902080012 78 248 0.0 2.0 0.00 0.00 0.00 77 1008.4
20260902075511 78 248 0.0 1.0 0.00 0.00 0.00 77 1008.6
20260902075011 78 248 0.0 1.0 0.00 0.00 0.00 77 1008.6
20260902074510 78 248 0.0 1.0 0.00 0.00 0.00 77 1008.6
20260902074011 78 248 0.0 1.0 0.00 0.00 0.00 76 1008.6
20260902073508 78 248 0.0 1.0 0.00 0.00 0.00 76 1008.7
20260902073008 79 248 0.0 1.0 0.00 0.00 0.00 76 1008.5
20260902072510 79 248 0.0 1.0 0.00 0.00 0.00 76 1008.6
20260902072007 79 247 0.0 1.0 0.00 0.00 0.00 76 1008.6
20260902071507 79 247 0.0 1.0 0.00 0.00 0.00 75 1008.6
20260902071004 80 243 0.0 1.0 0.00 0.00 0.00 74 1008.7
20260902070504 80 243 0.0 1.0 0.00 0.00 0.00 73 1008.8
20260902070007 80 243 0.0 1.0 0.00 0.00 0.00 73 1008.9
20260902065503 80 243 0.0 1.0 0.00 0.00 0.00 72 1008.9
20260902065001 80 243 0.0 1.0 0.00 0.00 0.00 72 1008.8
20260902064507 80 295 0.0 1.0 0.00 0.00 0.00 71 1008.8
20260902064104 80 233 0.0 1.0 0.00 0.00 0.00 72 1008.9
20260902063600 80 88 0.0 1.0 0.00 0.00 0.00 71 1008.6
20260902063115 80 162 0.0 0.0 0.00 0.00 0.00 72 1008.6
20260902062600 80 162 0.0 1.0 0.00 0.00 0.00 72 1008.6
20260902062059 81 259 0.0 1.0 0.00 0.00 0.00 72 1008.6
20260902061058 81 259 0.0 2.0 0.00 0.00 0.00 71 1008.5
20260902060557 81 259 0.0 2.0 0.00 0.00 0.00 71 1008.5
20260902060108 81 36 0.0 1.0 0.00 0.00 0.00 71 1008.6
20260902055557 81 36 0.0 1.0 0.00 0.00 0.00 71 1008.6
20260902055058 81 266 0.0 1.0 0.00 0.00 0.00 71 1008.6
20260902054608 81 266 0.0 1.0 0.00 0.00 0.00 71 1008.6
20260902054056 81 195 0.0 1.0 0.00 0.00 0.00 72 1008.4
20260902053556 81 195 0.0 1.0 0.00 0.00 0.00 71 1008.4
20260902053056 81 218 0.0 1.0 0.00 0.00 0.00 71 1008.4
20260902052554 81 219 0.0 1.0 0.00 0.00 0.00 70 1008.5
20260902052053 81 219 0.0 1.0 0.00 0.00 0.00 70 1008.5
20260902051558 81 219 0.0 2.0 0.00 0.00 0.00 70 1008.6
20260902051051 82 219 0.0 2.0 0.00 0.00 0.00 69 1008.6
20260902050551 82 217 0.0 1.0 0.00 0.00 0.00 68 1008.6
20260902050050 82 216 0.0 2.0 0.00 0.00 0.00 68 1008.6
20260902045549 82 323 0.0 2.0 0.00 0.00 0.00 67 1008.4
20260902045049 82 226 0.0 1.0 0.00 0.00 0.00 67 1008.4
20260902044549 83 243 0.0 3.0 0.00 0.00 0.00 67 1008.4
20260902044049 82 234 0.0 3.0 0.00 0.00 0.00 67 1008.5
20260902043548 83 183 0.0 1.0 0.00 0.00 0.00 67 1008.6
20260902043106 83 183 0.0 1.0 0.00 0.00 0.00 67 1008.6
20260902042551 83 237 0.0 1.0 0.00 0.00 0.00 66 1008.6
20260902042048 83 237 0.0 1.0 0.00 0.00 0.00 66 1008.6
20260902041602 83 237 0.0 1.0 0.00 0.00 0.00 66 1008.5
20260902041047 83 237 0.0 1.0 0.00 0.00 0.00 65 1008.5
20260902040547 83 237 0.0 1.0 0.00 0.00 0.00 65 1008.4
20260902040049 83 237 0.0 1.0 0.00 0.00 0.00 65 1008.4
20260902035547 84 237 0.0 1.0 0.00 0.00 0.00 64 1008.5
20260902035046 84 237 0.0 1.0 0.00 0.00 0.00 63 1008.4
20260902034550 84 237 0.0 2.0 0.00 0.00 0.00 63 1008.5
20260902034047 84 237 0.0 2.0 0.00 0.00 0.00 63 1008.4
20260902033546 83 49 0.0 3.0 0.00 0.00 0.00 64 1008.3
20260902033050 83 332 0.0 3.0 0.00 0.00 0.00 65 1008.2
20260902032546 82 264 0.0 2.0 0.00 0.00 0.00 66 1008.2
20260902032145 82 71 0.0 0.0 0.00 0.00 0.00 66 1008.0
20260902031545 82 70 0.0 0.0 0.00 0.00 0.00 64 1007.8
20260902031048 82 70 0.0 0.0 0.00 0.00 0.00 64 1007.7
20260902030548 82 70 0.0 0.0 0.00 0.00 0.00 65 1007.7
20260902030046 82 70 0.0 0.0 0.00 0.00 0.00 65 1007.6
20260902025545 82 71 0.0 0.0 0.00 0.00 0.00 64 1007.6
20260902025047 82 71 0.0 0.0 0.00 0.00 0.00 64 1007.6
20260902024549 82 70 0.0 0.0 0.00 0.00 0.00 63 1007.3
20260902024044 83 71 0.0 0.0 0.00 0.00 0.00 62 1007.3
20260902023544 83 71 0.0 0.0 0.00 0.00 0.00 62 1007.2
20260902023044 83 71 0.0 0.0 0.00 0.00 0.00 62 1007.1
20260902022544 84 71 0.0 0.0 0.00 0.00 0.00 61 1007.1
20260902022046 84 71 0.0 0.0 0.00 0.00 0.00 61 1007.1
20260902021545 84 71 0.0 0.0 0.00 0.00 0.00 60 1007.0
20260902021043 84 71 0.0 0.0 0.00 0.00 0.00 60 1007.0
20260902020543 85 71 0.0 0.0 0.00 0.00 0.00 59 1006.8
20260902020044 85 71 0.0 0.0 0.00 0.00 0.00 59 1006.8
20260902015543 85 71 0.0 0.0 0.00 0.00 0.00 59 1006.8
20260902015044 85 71 0.0 0.0 0.00 0.00 0.00 59 1006.7
20260902014550 85 70 0.0 0.0 0.00 0.00 0.00 58 1006.6
20260902014043 85 71 0.0 0.0 0.00 0.00 0.00 57 1006.6
20260902013542 86 71 0.0 0.0 0.00 0.00 0.00 57 1006.6
20260902013052 86 71 0.0 0.0 0.00 0.00 0.00 56 1006.6
20260902012541 87 71 0.0 1.0 0.00 0.00 0.00 55 1006.6
20260902012040 87 324 0.0 0.0 0.00 0.00 0.00 54 1006.5
20260902011541 88 324 0.0 0.0 0.00 0.00 0.00 53 1006.5
20260902011042 88 323 0.0 0.0 0.00 0.00 0.00 52 1006.4
20260902010542 89 324 0.0 0.0 0.00 0.00 0.00 51 1006.5
20260902010050 90 324 0.0 0.0 0.00 0.00 0.00 49 1006.5
20260902005540 91 323 0.0 0.0 0.00 0.00 0.00 48 1006.3
20260902005040 92 324 0.0 0.0 0.00 0.00 0.00 47 1006.3
20260902004541 93 324 0.0 0.0 0.00 0.00 0.00 46 1006.3
20260902004040 94 324 0.0 0.0 0.00 0.00 0.00 45 1006.3
20260902003544 95 324 0.0 1.0 0.00 0.00 0.00 44 1006.3
20260902003116 95 324 0.0 1.0 0.00 0.00 0.00 43 1006.3
20260902002538 96 77 0.0 2.0 0.00 0.00 0.00 43 1006.3
20260902002038 96 92 0.0 2.0 0.00 0.00 0.00 43 1006.4
20260902001541 95 191 0.0 3.0 0.00 0.00 0.00 44 1006.3
20260902001042 95 319 0.0 3.0 0.00 0.00 0.00 44 1006.4
20260902000538 95 75 0.0 1.0 0.00 0.00 0.00 43 1006.4
20260902000038 96 341 0.0 1.0 0.00 0.00 0.00 42 1006.5
20260901235538 97 270 0.0 1.0 0.00 0.00 0.00 41 1006.5
20260901235038 97 30 0.0 2.0 0.00 0.00 0.00 41 1006.5
20260901234539 97 285 0.0 2.0 0.00 0.00 0.00 43 1006.4
20260901234037 96 190 0.0 2.0 0.00 0.00 0.00 43 1006.5
20260901233538 96 324 0.0 3.0 0.00 0.00 0.00 44 1006.5
20260901233038 96 148 0.0 3.0 0.00 0.00 0.00 44 1006.6
20260901232536 96 247 0.0 3.0 0.00 0.00 0.00 44 1006.6
20260901232037 95 353 0.0 2.0 0.00 0.00 0.00 44 1006.5
20260901231543 95 212 0.0 1.0 0.00 0.00 0.00 43 1006.5
20260901231036 95 255 0.0 1.0 0.00 0.00 0.00 43 1006.6
20260901230535 95 255 0.0 1.0 0.00 0.00 0.00 44 1006.5
20260901230035 95 255 0.0 1.0 0.00 0.00 0.00 43 1006.6
20260901225534 96 255 0.0 0.0 0.00 0.00 0.00 43 1006.7
20260901225034 96 255 0.0 1.0 0.00 0.00 0.00 43 1006.7
20260901224534 96 255 0.0 1.0 0.00 0.00 0.00 42 1006.7
20260901224034 96 176 0.0 1.0 0.00 0.00 0.00 43 1006.8
20260901223534 97 271 0.0 1.0 0.00 0.00 0.00 43 1006.7
20260901223034 97 255 0.0 6.0 0.00 0.00 0.00 42 1006.7
20260901222537 97 304 0.0 6.0 0.00 0.00 0.00 42 1006.7
20260901222036 97 185 0.0 1.0 0.00 0.00 0.00 42 1006.7
20260901221539 97 185 0.0 1.0 0.00 0.00 0.00 41 1006.7
20260901221033 97 180 0.0 3.0 0.00 0.00 0.00 41 1006.7
20260901220532 97 39 0.0 4.0 0.00 0.00 0.00 42 1006.6
20260901220039 98 333 0.0 4.0 0.00 0.00 0.00 41 1006.6
20260901215532 99 94 0.0 1.0 0.00 0.00 0.00 39 1006.7
20260901215035 99 275 0.0 1.0 0.00 0.00 0.00 39 1006.7
20260901214535 100 275 0.0 2.0 0.00 0.00 0.00 38 1006.8
20260901214034 101 167 0.0 5.0 0.00 0.00 0.00 37 1006.7
20260901213532 102 167 1.0 6.0 0.00 0.00 0.00 36 1006.8
20260901213035 103 247 0.0 2.0 0.00 0.00 0.00 35 1006.7
20260901212529 102 11 0.0 3.0 0.00 0.00 0.00 36 1006.8
20260901212032 102 172 0.0 5.0 0.00 0.00 0.00 37 1006.9
20260901211528 102 304 1.0 5.0 0.00 0.00 0.00 36 1006.9
20260901211027 101 303 0.0 2.0 0.00 0.00 0.00 37 1007.0
20260901210526 100 221 0.0 3.0 0.00 0.00 0.00 40 1007.0
20260901210026 99 296 0.0 3.0 0.00 0.00 0.00 39 1007.1
20260901205526 100 46 0.0 3.0 0.00 0.00 0.00 40 1007.1
20260901205030 100 97 0.0 2.0 0.00 0.00 0.00 38 1007.3
20260901204528 101 347 0.0 2.0 0.00 0.00 0.00 37 1007.3
20260901204024 101 310 0.0 2.0 0.00 0.00 0.00 39 1007.4
20260901203525 100 271 0.0 6.0 0.00 0.00 0.00 40 1007.4
20260901203023 99 75 0.0 3.0 0.00 0.00 0.00 41 1007.4
20260901202522 99 108 0.0 3.0 0.00 0.00 0.00 40 1007.4
20260901202022 99 360 0.0 3.0 0.00 0.00 0.00 40 1007.5
20260901201521 100 317 0.0 3.0 0.00 0.00 0.00 39 1007.6
20260901201021 100 241 1.0 3.0 0.00 0.00 0.00 38 1007.7
20260901200519 100 240 0.0 4.0 0.00 0.00 0.00 40 1007.8
20260901200020 101 176 1.0 4.0 0.00 0.00 0.00 38 1007.7
20260901195518 100 165 0.0 4.0 0.00 0.00 0.00 41 1007.9
20260901195020 100 228 1.0 6.0 0.00 0.00 0.00 43 1007.9
20260901194516 99 280 2.0 6.0 0.00 0.00 0.00 42 1007.9
20260901194018 100 196 1.0 4.0 0.00 0.00 0.00 41 1008.0
20260901193515 99 1 0.0 1.0 0.00 0.00 0.00 42 1008.1
20260901193015 99 1 0.0 3.0 0.00 0.00 0.00 41 1008.2
20260901192514 99 271 0.0 3.0 0.00 0.00 0.00 41 1008.3
20260901192014 99 191 0.0 2.0 0.00 0.00 0.00 40 1008.3
20260901191515 99 236 0.0 4.0 0.00 0.00 0.00 41 1008.4
20260901191013 99 39 0.0 4.0 0.00 0.00 0.00 43 1008.4
20260901190514 99 212 1.0 4.0 0.00 0.00 0.00 43 1008.6
20260901190016 99 268 0.0 2.0 0.00 0.00 0.00 40 1008.6
20260901185513 99 219 0.0 5.0 0.00 0.00 0.00 42 1008.7
20260901185013 100 67 0.0 5.0 0.00 0.00 0.00 40 1008.7
20260901184511 99 187 0.0 7.0 0.00 0.00 0.00 42 1008.8
20260901184011 99 341 3.0 7.0 0.00 0.00 0.00 39 1008.8
20260901183510 98 67 1.0 5.0 0.00 0.00 0.00 40 1009.0
20260901183008 97 309 0.0 4.0 0.00 0.00 0.00 45 1009.1
20260901182508 96 206 0.0 4.0 0.00 0.00 0.00 46 1009.3
20260901182011 96 21 0.0 4.0 0.00 0.00 0.00 46 1009.5
20260901181509 96 41 0.0 3.0 0.00 0.00 0.00 45 1009.5
20260901181007 96 313 0.0 2.0 0.00 0.00 0.00 46 1009.6
20260901180507 95 261 0.0 4.0 0.00 0.00 0.00 46 1009.7
20260901180007 96 179 1.0 4.0 0.00 0.00 0.00 46 1009.9
20260901175506 96 30 0.0 4.0 0.00 0.00 0.00 45 1009.9
20260901175008 97 68 0.0 4.0 0.00 0.00 0.00 44 1009.9
20260901174506 97 8 0.0 3.0 0.00 0.00 0.00 43 1010.1
20260901174008 97 221 0.0 3.0 0.00 0.00 0.00 46 1010.2
20260901173503 96 165 0.0 4.0 0.00 0.00 0.00 47 1010.2
20260901173003 95 146 0.0 4.0 0.00 0.00 0.00 49 1010.3
20260901172504 93 306 0.0 3.0 0.00 0.00 0.00 49 1010.4
20260901172002 93 65 0.0 3.0 0.00 0.00 0.00 49 1010.4
20260901171507 94 77 0.0 5.0 0.00 0.00 0.00 48 1010.4
20260901171002 95 79 1.0 5.0 0.00 0.00 0.00 47 1010.5
20260901170502 95 40 0.0 3.0 0.00 0.00 0.00 49 1010.5
20260901170002 95 58 0.0 4.0 0.00 0.00 0.00 48 1010.5
20260901165501 95 229 1.0 6.0 0.00 0.00 0.00 50 1010.5
20260901165003 95 228 3.0 6.0 0.00 0.00 0.00 49 1010.5
20260901164615 95 253 0.0 2.0 0.00 0.00 0.00 52 1010.7
20260901164059 93 224 0.0 5.0 0.00 0.00 0.00 52 1010.6
20260901163559 93 217 0.0 5.0 0.00 0.00 0.00 53 1010.8
20260901163115 93 329 2.0 6.0 0.00 0.00 0.00 55 1010.8
20260901162555 93 202 1.0 6.0 0.00 0.00 0.00 51 1010.9
20260901162054 93 246 0.0 5.0 0.00 0.00 0.00 52 1010.8
20260901161553 92 231 0.0 9.0 0.00 0.00 0.00 54 1010.8
20260901161053 92 300 1.0 9.0 0.00 0.00 0.00 54 1010.9
20260901160551 92 254 1.0 7.0 0.00 0.00 0.00 53 1010.9
20260901160051 91 231 1.0 7.0 0.00 0.00 0.00 55 1010.7